createdAt,value
2018-07-15T00:00:22.653Z,67.64
2018-07-15T00:01:22.644Z,67.54
2018-07-15T00:02:22.588Z,67.74
2018-07-15T00:03:22.654Z,67.54
2018-07-15T00:04:22.611Z,67.68
2018-07-15T00:05:22.603Z,67.47
2018-07-15T00:06:22.599Z,67.44
2018-07-15T00:07:22.578Z,67.34
2018-07-15T00:08:22.602Z,67.37
2018-07-15T00:09:22.571Z,67.27
2018-07-15T00:10:22.549Z,67.57
2018-07-15T00:11:22.539Z,68.38
2018-07-15T00:12:22.531Z,68.48
2018-07-15T00:13:22.556Z,67.17
2018-07-15T00:14:22.466Z,67.57
2018-07-15T00:15:22.456Z,67.47
2018-07-15T00:16:22.489Z,68.98
2018-07-15T00:17:22.437Z,68.48
2018-07-15T00:18:22.492Z,68.08
2018-07-15T00:19:22.415Z,68.38
2018-07-15T00:20:22.448Z,68.28
2018-07-15T00:21:22.431Z,68.18
2018-07-15T00:22:22.421Z,67.80
2018-07-15T00:23:22.518Z,68.78
2018-07-15T00:24:22.399Z,68.51
2018-07-15T00:25:22.479Z,68.81
2018-07-15T00:26:58.154Z,68.41
2018-07-15T00:27:22.370Z,68.91
2018-07-15T00:28:22.389Z,68.81
2018-07-15T00:29:22.378Z,68.91
2018-07-15T00:30:22.334Z,68.41
2018-07-15T00:31:22.331Z,68.85
2018-07-15T00:32:22.318Z,69.01
2018-07-15T00:33:22.311Z,68.71
2018-07-15T00:34:22.322Z,68.81
2018-07-15T00:35:22.286Z,69.21
2018-07-15T00:36:22.270Z,68.71
2018-07-15T00:37:22.258Z,68.81
2018-07-15T00:38:22.256Z,69.32
2018-07-15T00:39:22.264Z,69.72
2018-07-15T00:40:22.226Z,69.85
2018-07-15T00:41:22.218Z,70.06
2018-07-15T00:42:22.203Z,69.65
2018-07-15T00:43:22.197Z,70.15
2018-07-15T00:44:22.209Z,70.26
2018-07-15T00:45:22.170Z,70.36
2018-07-15T00:46:22.163Z,70.29
2018-07-15T00:47:22.157Z,69.95
2018-07-15T00:48:22.139Z,70.29
2018-07-15T00:49:22.151Z,70.59
2018-07-15T00:50:22.075Z,70.09
2018-07-15T00:51:22.104Z,70.79
2018-07-15T00:52:22.096Z,70.09
2018-07-15T00:53:22.083Z,70.66
2018-07-15T00:54:22.106Z,70.79
2018-07-15T00:55:22.143Z,70.19
2018-07-15T00:56:22.049Z,70.49
2018-07-15T00:57:22.042Z,71.60
2018-07-15T00:58:22.029Z,70.89
2018-07-15T00:59:22.045Z,71.50
2018-07-15T01:00:22.023Z,71.80
2018-07-15T01:01:21.994Z,71.70
2018-07-15T01:02:21.987Z,71.40
2018-07-15T01:03:21.929Z,71.64
2018-07-15T01:04:21.988Z,71.80
2018-07-15T01:05:21.915Z,72.34
2018-07-15T01:06:21.942Z,71.94
2018-07-15T01:07:21.933Z,71.73
2018-07-15T01:08:21.923Z,72.04
2018-07-15T01:09:21.936Z,72.14
2018-07-15T01:10:21.904Z,72.14
2018-07-15T01:11:21.888Z,72.44
2018-07-15T01:12:21.875Z,72.54
2018-07-15T01:13:21.866Z,72.64
2018-07-15T01:14:21.880Z,72.85
2018-07-15T01:15:21.849Z,72.58
2018-07-15T01:16:21.830Z,72.38
2018-07-15T01:17:21.776Z,72.75
2018-07-15T01:18:21.769Z,72.85
2018-07-15T01:19:21.825Z,73.05
2018-07-15T01:20:21.795Z,73.18
2018-07-15T01:21:21.776Z,73.25
2018-07-15T01:22:21.725Z,73.18
2018-07-15T01:23:21.751Z,73.49
2018-07-15T01:24:22.017Z,73.58
2018-07-15T01:25:21.731Z,73.08
2018-07-15T01:26:21.722Z,73.18
2018-07-15T01:27:21.712Z,72.98
2018-07-15T01:28:21.748Z,73.49
2018-07-15T01:29:21.722Z,73.58
2018-07-15T01:30:21.674Z,73.69
2018-07-15T01:31:21.665Z,73.49
2018-07-15T01:32:21.658Z,72.98
2018-07-15T01:33:21.645Z,73.28
2018-07-15T01:34:21.684Z,73.02
2018-07-15T01:35:21.619Z,73.11
2018-07-15T01:36:21.613Z,73.02
2018-07-15T01:37:21.604Z,73.32
2018-07-15T01:38:21.591Z,73.32
2018-07-15T01:39:21.610Z,73.02
2018-07-15T01:40:21.525Z,72.71
2018-07-15T01:41:21.565Z,72.41
2018-07-15T01:42:21.515Z,71.50
2018-07-15T01:43:21.536Z,72.81
2018-07-15T01:44:21.545Z,72.51
2018-07-15T01:45:21.469Z,72.21
2018-07-15T01:46:21.507Z,72.41
2018-07-15T01:47:21.496Z,72.41
2018-07-15T01:48:21.481Z,72.21
2018-07-15T01:49:21.487Z,72.41
2018-07-15T01:50:21.462Z,71.91
2018-07-15T01:51:21.446Z,72.41
2018-07-15T01:52:21.404Z,72.21
2018-07-15T01:53:21.430Z,72.31
2018-07-15T01:54:21.439Z,71.91
2018-07-15T01:55:21.404Z,72.11
2018-07-15T01:56:21.401Z,72.21
2018-07-15T01:57:21.381Z,72.51
2018-07-15T01:58:21.371Z,72.81
2018-07-15T01:59:21.388Z,72.61
2018-07-15T02:00:21.351Z,72.61
2018-07-15T02:01:21.349Z,72.91
2018-07-15T02:02:21.342Z,72.71
2018-07-15T02:03:21.313Z,73.05
2018-07-15T02:04:21.329Z,73.55
2018-07-15T02:05:21.288Z,73.32
2018-07-15T02:06:21.278Z,73.75
2018-07-15T02:07:21.278Z,73.35
2018-07-15T02:08:21.269Z,73.25
2018-07-15T02:09:21.275Z,72.95
2018-07-15T02:10:21.240Z,73.35
2018-07-15T02:11:21.227Z,74.10
2018-07-15T02:12:21.211Z,74.30
2018-07-15T02:13:21.163Z,73.90
2018-07-15T02:14:21.230Z,74.19
2018-07-15T02:15:21.151Z,74.06
2018-07-15T02:16:21.173Z,74.30
2018-07-15T02:17:21.163Z,74.19
2018-07-15T02:18:21.150Z,73.96
2018-07-15T02:19:21.320Z,73.86
2018-07-15T02:20:21.125Z,73.28
2018-07-15T02:21:21.084Z,73.49
2018-07-15T02:22:21.108Z,74.10
2018-07-15T02:23:21.092Z,74.10
2018-07-15T02:24:21.080Z,73.69
2018-07-15T02:25:21.182Z,74.40
2018-07-15T02:26:21.083Z,74.50
2018-07-15T02:27:21.058Z,74.43
2018-07-15T02:28:21.041Z,74.74
2018-07-15T02:29:21.032Z,75.65
2018-07-15T02:30:21.045Z,75.24
2018-07-15T02:31:21.010Z,74.84
2018-07-15T02:32:20.997Z,74.74
2018-07-15T02:33:20.987Z,74.84
2018-07-15T02:34:20.975Z,74.63
2018-07-15T02:35:20.987Z,74.23
2018-07-15T02:36:20.907Z,74.43
2018-07-15T02:37:20.937Z,75.07
2018-07-15T02:38:20.927Z,74.87
2018-07-15T02:39:20.921Z,74.74
2018-07-15T02:40:53.250Z,74.98
2018-07-15T02:41:20.897Z,74.84
2018-07-15T02:42:20.894Z,74.47
2018-07-15T02:43:20.875Z,74.57
2018-07-15T02:44:20.859Z,74.77
2018-07-15T02:45:20.855Z,74.57
2018-07-15T02:46:20.865Z,74.98
2018-07-15T02:47:20.827Z,74.98
2018-07-15T02:48:20.824Z,75.07
2018-07-15T02:49:20.808Z,74.77
2018-07-15T02:50:20.827Z,74.77
2018-07-15T02:51:20.739Z,74.71
2018-07-15T02:52:20.735Z,74.47
2018-07-15T02:53:20.767Z,74.77
2018-07-15T02:54:20.751Z,74.67
2018-07-15T02:55:20.761Z,75.07
2018-07-15T02:56:20.736Z,75.11
2018-07-15T02:57:20.722Z,74.67
2018-07-15T02:58:20.707Z,75.31
2018-07-15T02:59:20.655Z,74.67
2018-07-15T03:00:20.710Z,74.87
2018-07-15T03:01:20.675Z,74.81
2018-07-15T03:02:20.662Z,75.28
2018-07-15T03:03:20.611Z,75.07
2018-07-15T03:04:20.647Z,74.98
2018-07-15T03:05:20.653Z,75.07
2018-07-15T03:06:20.624Z,75.18
2018-07-15T03:07:20.608Z,74.87
2018-07-15T03:08:20.595Z,75.31
2018-07-15T03:09:20.589Z,75.31
2018-07-15T03:10:20.595Z,74.91
2018-07-15T03:11:20.567Z,75.01
2018-07-15T03:12:20.509Z,75.42
2018-07-15T03:13:20.538Z,75.52
2018-07-15T03:14:20.538Z,75.11
2018-07-15T03:15:20.567Z,74.71
2018-07-15T03:16:20.513Z,74.71
2018-07-15T03:17:20.584Z,74.60
2018-07-15T03:18:20.561Z,74.30
2018-07-15T03:19:20.474Z,74.40
2018-07-15T03:20:20.561Z,74.71
2018-07-15T03:21:20.452Z,74.81
2018-07-15T03:22:20.449Z,74.71
2018-07-15T03:23:20.433Z,74.71
2018-07-15T03:24:20.429Z,74.81
2018-07-15T03:25:20.442Z,74.16
2018-07-15T03:26:20.397Z,74.40
2018-07-15T03:27:20.383Z,74.60
2018-07-15T03:28:20.377Z,74.81
2018-07-15T03:29:20.364Z,74.81
2018-07-15T03:30:20.428Z,74.60
2018-07-15T03:31:20.335Z,74.51
2018-07-15T03:32:20.330Z,75.01
2018-07-15T03:33:20.319Z,76.12
2018-07-15T03:34:20.307Z,75.82
2018-07-15T03:35:20.297Z,75.79
2018-07-15T03:36:20.307Z,75.72
2018-07-15T03:37:20.271Z,75.72
2018-07-15T03:38:20.270Z,76.12
2018-07-15T03:39:20.252Z,76.43
2018-07-15T03:40:20.242Z,75.89
2018-07-15T03:41:20.274Z,75.72
2018-07-15T03:42:20.176Z,75.92
2018-07-15T03:43:20.207Z,75.11
2018-07-15T03:44:20.194Z,76.29
2018-07-15T03:45:20.183Z,75.62
2018-07-15T03:46:20.207Z,76.32
2018-07-15T03:47:20.163Z,75.62
2018-07-15T03:48:20.154Z,75.92
2018-07-15T03:49:20.096Z,75.42
2018-07-15T03:50:20.132Z,75.72
2018-07-15T03:51:20.187Z,75.72
2018-07-15T03:52:20.109Z,75.72
2018-07-15T03:53:20.096Z,76.12
2018-07-15T03:54:20.084Z,75.62
2018-07-15T03:55:20.074Z,75.62
2018-07-15T03:56:20.045Z,75.72
2018-07-15T03:57:20.049Z,75.72
2018-07-15T03:58:20.036Z,75.31
2018-07-15T03:59:20.030Z,75.11
2018-07-15T04:00:20.022Z,75.72
2018-07-15T04:01:20.030Z,75.72
2018-07-15T04:02:19.993Z,75.21
2018-07-15T04:03:19.981Z,75.21
2018-07-15T04:04:19.974Z,75.31
2018-07-15T04:05:19.962Z,75.58
2018-07-15T04:06:41.706Z,75.01
2018-07-15T04:08:49.677Z,75.72
2018-07-15T04:09:29.388Z,74.67
2018-07-15T04:10:28.628Z,75.52
2018-07-15T04:11:33.953Z,74.91
2018-07-15T04:12:28.605Z,74.91
2018-07-15T04:13:28.598Z,75.31
2018-07-15T04:14:28.586Z,74.71
2018-07-15T04:25:18.979Z,74.47
2018-07-15T04:26:03.519Z,74.47
2018-07-15T04:27:03.484Z,74.43
2018-07-15T04:28:03.479Z,74.33
2018-07-15T04:29:03.461Z,73.43
2018-07-15T04:30:03.452Z,73.83
2018-07-15T04:31:03.471Z,73.32
2018-07-15T04:32:03.436Z,74.13
2018-07-15T04:33:03.423Z,74.13
2018-07-15T04:34:03.414Z,74.03
2018-07-15T04:35:03.407Z,73.83
2018-07-15T04:36:03.416Z,73.72
2018-07-15T04:37:03.381Z,73.79
2018-07-15T04:38:03.504Z,73.19
2018-07-15T04:39:03.359Z,72.88
2018-07-15T04:40:03.303Z,73.08
2018-07-15T04:41:03.311Z,72.88
2018-07-15T04:42:03.321Z,72.64
2018-07-15T04:43:03.321Z,72.44
2018-07-15T04:44:03.260Z,72.44
2018-07-15T04:45:03.289Z,72.64
2018-07-15T04:46:03.280Z,72.04
2018-07-15T04:47:03.295Z,72.04
2018-07-15T04:48:03.257Z,72.34
2018-07-15T04:49:03.248Z,71.94
2018-07-15T04:50:03.201Z,71.84
2018-07-15T04:51:03.228Z,71.30
2018-07-15T04:52:03.240Z,71.50
2018-07-15T04:53:03.206Z,71.00
2018-07-15T04:54:03.193Z,71.40
2018-07-15T04:55:03.188Z,71.00
2018-07-15T04:56:03.193Z,70.56
2018-07-15T04:57:03.187Z,70.96
2018-07-15T04:58:03.152Z,70.76
2018-07-15T04:59:03.146Z,70.86
2018-07-15T05:00:03.136Z,70.46
2018-07-15T05:01:03.081Z,70.76
2018-07-15T05:02:03.168Z,70.32
2018-07-15T05:03:03.098Z,69.95
2018-07-15T05:04:03.101Z,70.73
2018-07-15T05:05:03.081Z,70.62
2018-07-15T05:06:03.069Z,69.92
2018-07-15T05:07:03.082Z,69.72
2018-07-15T05:08:03.053Z,69.82
2018-07-15T05:09:03.037Z,68.91
2018-07-15T05:10:03.028Z,68.07
2018-07-15T05:11:03.017Z,68.37
2018-07-15T05:12:03.034Z,68.68
2018-07-15T05:13:02.993Z,68.27
2018-07-15T05:14:02.982Z,67.67
2018-07-15T05:15:02.971Z,68.68
2018-07-15T05:16:02.955Z,68.98
2018-07-15T05:17:02.929Z,68.98
2018-07-15T05:18:02.935Z,68.14
2018-07-15T05:19:02.957Z,68.74
2018-07-15T05:20:02.916Z,67.94
2018-07-15T05:21:02.907Z,69.95
2018-07-15T05:22:02.929Z,70.42
2018-07-15T05:23:02.887Z,68.71
2018-07-15T05:24:02.881Z,67.71
2018-07-15T05:25:02.891Z,66.47
2018-07-15T05:26:02.853Z,65.76
2018-07-15T05:27:02.827Z,67.97
2018-07-15T05:28:02.830Z,69.85
2018-07-15T05:29:02.815Z,67.34
2018-07-15T05:30:02.771Z,67.64
2018-07-15T05:31:02.800Z,67.14
2018-07-15T05:32:02.811Z,65.62
2018-07-15T05:33:02.783Z,65.09
2018-07-15T05:34:02.764Z,64.89
2018-07-15T05:35:02.799Z,65.19
2018-07-15T05:36:02.752Z,64.69
2018-07-15T05:37:02.717Z,65.19
2018-07-15T05:38:02.723Z,65.39
2018-07-15T05:39:02.678Z,65.39
2018-07-15T05:40:02.701Z,65.19
2018-07-15T05:41:02.650Z,65.30
2018-07-15T05:42:02.707Z,65.26
2018-07-15T05:43:02.671Z,65.47
2018-07-15T05:44:02.672Z,64.36
2018-07-15T05:45:02.647Z,65.97
2018-07-15T05:46:02.640Z,65.97
2018-07-15T05:47:02.653Z,64.96
2018-07-15T05:48:02.632Z,64.76
2018-07-15T05:49:02.656Z,64.76
2018-07-15T05:50:02.601Z,64.66
2018-07-15T05:51:02.584Z,65.47
2018-07-15T05:52:02.602Z,64.86
2018-07-15T05:53:02.625Z,64.86
2018-07-15T05:54:02.553Z,64.56
2018-07-15T05:55:02.542Z,64.26
2018-07-15T05:56:02.537Z,64.53
2018-07-15T05:57:02.542Z,64.66
2018-07-15T05:58:02.577Z,64.83
2018-07-15T05:59:02.497Z,64.66
2018-07-15T06:00:02.446Z,64.53
2018-07-15T06:01:02.468Z,64.23
2018-07-15T06:02:02.456Z,64.23
2018-07-15T06:03:02.450Z,64.03
2018-07-15T06:04:02.440Z,64.23
2018-07-15T06:05:02.430Z,65.13
2018-07-15T06:06:02.424Z,64.70
2018-07-15T06:07:02.434Z,63.70
2018-07-15T06:08:02.398Z,63.39
2018-07-15T06:09:02.392Z,63.56
2018-07-15T06:10:02.385Z,63.59
2018-07-15T06:11:02.373Z,63.19
2018-07-15T06:12:02.385Z,63.29
2018-07-15T06:13:02.340Z,65.80
2018-07-15T06:14:02.330Z,63.79
2018-07-15T06:15:02.321Z,63.79
2018-07-15T06:16:02.313Z,67.11
2018-07-15T06:17:02.377Z,64.97
2018-07-15T06:18:02.308Z,64.74
2018-07-15T06:19:02.286Z,62.60
2018-07-15T06:20:02.273Z,62.73
2018-07-15T06:21:02.209Z,62.83
2018-07-15T06:22:02.273Z,62.43
2018-07-15T06:23:02.238Z,63.93
2018-07-15T06:24:02.222Z,63.00
2018-07-15T06:25:02.211Z,64.88
2018-07-15T06:26:02.205Z,61.64
2018-07-15T06:27:02.221Z,61.04
2018-07-15T06:28:02.176Z,59.44
2018-07-15T06:29:02.163Z,61.61
2018-07-15T06:30:02.160Z,61.02
2018-07-15T06:31:02.196Z,56.61
2018-07-15T06:32:02.160Z,52.42
2018-07-15T06:33:02.125Z,51.65
2018-07-15T06:34:02.121Z,48.05
2018-07-15T06:35:02.102Z,46.51
2018-07-15T06:36:02.055Z,44.94
2018-07-15T06:37:02.101Z,42.60
2018-07-15T06:38:02.070Z,40.29
2018-07-15T06:39:02.062Z,40.25
2018-07-15T06:40:02.052Z,37.73
2018-07-15T06:41:02.045Z,37.41
2018-07-15T06:42:02.052Z,37.18
2018-07-15T06:43:02.041Z,36.30
2018-07-15T06:44:02.012Z,35.69
2018-07-15T06:45:01.955Z,35.36
2018-07-15T06:46:02.054Z,34.36
2018-07-15T06:47:01.978Z,33.17
2018-07-15T06:48:01.993Z,33.18
2018-07-15T06:49:01.951Z,33.54
2018-07-15T06:50:01.942Z,34.23
2018-07-15T06:51:01.932Z,32.46
2018-07-15T06:52:01.958Z,32.25
2018-07-15T06:53:01.935Z,31.96
2018-07-15T06:54:01.958Z,33.25
2018-07-15T06:55:01.894Z,32.46
2018-07-15T06:56:01.885Z,32.95
2018-07-15T06:57:01.868Z,32.64
2018-07-15T06:58:01.919Z,32.74
2018-07-15T06:59:01.856Z,32.46
2018-07-15T07:00:01.843Z,32.35
2018-07-15T07:01:01.837Z,32.76
2018-07-15T07:02:01.772Z,32.84
2018-07-15T07:03:01.791Z,32.63
2018-07-15T07:04:01.817Z,32.12
2018-07-15T07:05:01.795Z,31.31
2018-07-15T07:06:01.737Z,30.82
2018-07-15T07:07:01.773Z,31.20
2018-07-15T07:08:01.788Z,30.90
2018-07-15T07:09:01.755Z,30.29
2018-07-15T07:10:01.756Z,30.47
2018-07-15T07:11:01.689Z,29.98
2018-07-15T07:12:01.721Z,28.99
2018-07-15T07:13:01.740Z,29.57
2018-07-15T07:14:01.719Z,29.38
2018-07-15T07:15:01.695Z,29.79
2018-07-15T07:16:01.632Z,29.88
2018-07-15T07:17:01.669Z,29.38
2018-07-15T07:18:01.694Z,30.29
2018-07-15T07:19:01.657Z,30.30
2018-07-15T07:20:01.642Z,29.70
2018-07-15T07:21:01.631Z,30.08
2018-07-15T07:22:01.625Z,29.38
2018-07-15T07:23:01.638Z,28.99
2018-07-15T07:24:01.599Z,29.00
2018-07-15T07:25:01.589Z,29.70
2018-07-15T07:26:01.585Z,29.49
2018-07-15T07:27:01.592Z,29.90
2018-07-15T07:28:01.535Z,29.99
2018-07-15T07:29:01.547Z,30.87
2018-07-15T07:30:01.541Z,30.61
2018-07-15T07:31:01.534Z,30.40
2018-07-15T07:32:01.670Z,29.99
2018-07-15T07:33:01.541Z,30.09
2018-07-15T07:34:01.510Z,29.57
2018-07-15T07:35:01.448Z,29.27
2018-07-15T07:36:01.480Z,28.88
2018-07-15T07:37:01.470Z,28.77
2018-07-15T07:38:01.489Z,29.15
2018-07-15T07:39:01.413Z,28.08
2018-07-15T07:40:01.439Z,27.97
2018-07-15T07:41:01.429Z,28.44
2018-07-15T07:42:01.424Z,28.16
2018-07-15T07:43:01.432Z,28.54
2018-07-15T07:44:01.400Z,28.45
2018-07-15T07:45:01.383Z,28.36
2018-07-15T07:46:01.379Z,28.47
2018-07-15T07:47:01.402Z,28.77
2018-07-15T07:48:01.386Z,29.06
2018-07-15T07:49:01.305Z,28.77
2018-07-15T07:50:01.353Z,29.17
2018-07-15T07:51:01.343Z,28.18
2018-07-15T07:52:01.321Z,29.15
2018-07-15T07:53:09.908Z,27.97
2018-07-15T07:54:01.296Z,28.34
2018-07-15T07:55:01.287Z,27.28
2018-07-15T07:56:01.277Z,27.28
2018-07-15T07:57:01.264Z,27.18
2018-07-15T07:58:01.283Z,28.05
2018-07-15T07:59:01.251Z,28.96
2018-07-15T08:00:01.235Z,28.86
2018-07-15T08:01:01.226Z,29.64
2018-07-15T08:02:01.293Z,29.15
2018-07-15T08:03:01.235Z,28.36
2018-07-15T08:04:01.206Z,27.97
2018-07-15T08:05:01.188Z,28.15
2018-07-15T08:06:01.175Z,28.05
2018-07-15T08:07:01.175Z,28.26
2018-07-15T08:08:01.183Z,28.77
2018-07-15T08:09:01.149Z,28.47
2018-07-15T08:10:01.139Z,28.77
2018-07-15T08:11:01.129Z,29.18
2018-07-15T08:12:01.113Z,29.18
2018-07-15T08:13:01.133Z,28.39
2018-07-15T08:14:01.175Z,28.58
2018-07-15T08:15:01.083Z,28.78
2018-07-15T08:16:01.126Z,28.57
2018-07-15T08:17:01.066Z,28.55
2018-07-15T08:18:01.037Z,27.95
2018-07-15T08:19:01.052Z,28.15
2018-07-15T08:20:01.040Z,28.54
2018-07-15T08:21:01.028Z,28.44
2018-07-15T08:22:00.967Z,28.55
2018-07-15T08:23:01.034Z,28.05
2018-07-15T08:24:01.004Z,28.15
2018-07-15T08:25:00.990Z,27.47
2018-07-15T08:26:00.984Z,27.19
2018-07-15T08:27:01.065Z,28.26
2018-07-15T08:28:01.061Z,28.26
2018-07-15T08:29:00.951Z,28.08
2018-07-15T08:30:01.034Z,27.87
2018-07-15T08:31:00.927Z,27.69
2018-07-15T08:32:00.922Z,28.39
2018-07-15T08:33:00.924Z,28.79
2018-07-15T08:34:00.896Z,28.30
2018-07-15T08:35:00.948Z,29.47
2018-07-15T08:36:00.903Z,28.30
2018-07-15T08:37:00.868Z,28.82
2018-07-15T08:38:00.861Z,28.99
2018-07-15T08:39:00.868Z,27.80
2018-07-15T08:40:00.834Z,26.84
2018-07-15T08:41:00.824Z,27.72
2018-07-15T08:42:00.810Z,27.26
2018-07-15T08:43:00.800Z,28.94
2018-07-15T08:44:00.785Z,27.48
2018-07-15T08:45:00.782Z,27.56
2018-07-15T08:46:00.780Z,26.67
2018-07-15T08:47:00.767Z,27.75
2018-07-15T08:48:00.756Z,27.26
2018-07-15T08:49:00.766Z,27.17
2018-07-15T08:50:00.734Z,27.28
2018-07-15T08:51:00.721Z,28.47
2018-07-15T08:52:00.712Z,28.47
2018-07-15T08:53:00.706Z,28.41
2018-07-15T08:54:00.726Z,30.76
2018-07-15T08:55:00.683Z,32.65
2018-07-15T08:56:00.673Z,33.28
2018-07-15T08:57:00.616Z,34.69
2018-07-15T08:58:00.657Z,35.48
2018-07-15T08:59:00.670Z,35.18
2018-07-15T09:00:00.647Z,36.07
2018-07-15T09:01:00.664Z,35.27
2018-07-15T09:02:00.607Z,35.05
2018-07-15T09:03:00.603Z,34.87
2018-07-15T09:04:00.621Z,35.15
2018-07-15T09:05:00.575Z,33.67
2018-07-15T09:06:00.568Z,33.58
2018-07-15T09:07:00.566Z,34.74
2018-07-15T09:08:00.547Z,33.54
2018-07-15T09:09:00.562Z,33.34
2018-07-15T09:10:00.524Z,32.46
2018-07-15T09:11:00.524Z,33.92
2018-07-15T09:12:00.514Z,33.64
2018-07-15T09:13:00.516Z,32.38
2018-07-15T09:14:07.531Z,32.76
2018-07-15T09:15:00.473Z,31.77
2018-07-15T09:16:00.469Z,30.77
2018-07-15T09:17:00.454Z,31.46
2018-07-15T09:18:00.441Z,32.54
2018-07-15T09:19:00.453Z,32.65
2018-07-15T09:20:00.423Z,32.07
2018-07-15T09:21:00.422Z,32.86
2018-07-15T09:22:00.400Z,31.38
2018-07-15T09:23:00.388Z,31.49
2018-07-15T09:24:00.412Z,29.80
2018-07-15T09:25:00.381Z,30.19
2018-07-15T09:26:00.358Z,32.56
2018-07-15T09:27:00.328Z,29.23
2018-07-15T09:28:00.357Z,30.98
2018-07-15T09:29:00.319Z,29.72
2018-07-15T09:30:00.327Z,30.21
2018-07-15T09:31:00.318Z,30.62
2018-07-15T09:32:00.304Z,30.03
2018-07-15T09:33:00.289Z,29.34
2018-07-15T09:34:00.308Z,29.06
2018-07-15T09:35:00.341Z,29.06
2018-07-15T09:36:00.250Z,28.78
2018-07-15T09:37:00.273Z,30.57
2018-07-15T09:38:00.233Z,29.38
2018-07-15T09:39:00.260Z,31.86
2018-07-15T09:40:00.174Z,31.76
2018-07-15T09:41:00.174Z,32.26
2018-07-15T09:42:00.205Z,31.75
2018-07-15T09:43:00.194Z,31.16
2018-07-15T09:44:00.146Z,32.52
2018-07-15T09:45:00.185Z,32.62
2018-07-15T09:46:00.165Z,32.82
2018-07-15T09:47:00.153Z,33.51
2018-07-15T09:48:00.086Z,31.34
2018-07-15T09:49:00.153Z,32.23
2018-07-15T09:50:00.136Z,32.03
2018-07-15T09:51:00.113Z,31.93
2018-07-15T09:52:00.085Z,32.54
2018-07-15T09:53:00.123Z,32.73
2018-07-15T09:54:00.080Z,32.54
2018-07-15T09:55:00.138Z,32.73
2018-07-15T09:56:00.048Z,32.56
2018-07-15T09:57:00.054Z,34.13
2018-07-15T09:58:00.033Z,33.74
2018-07-15T09:59:00.095Z,32.85
2018-07-15T10:00:00.284Z,33.46
2018-07-15T10:00:59.989Z,33.08
2018-07-15T10:01:59.986Z,34.46
2018-07-15T10:02:59.979Z,33.85
2018-07-15T10:03:59.966Z,34.55
2018-07-15T10:04:59.976Z,35.24
2018-07-15T10:05:59.938Z,35.33
2018-07-15T10:06:59.938Z,35.55
2018-07-15T10:07:59.919Z,35.55
2018-07-15T10:08:59.916Z,34.44
2018-07-15T10:09:59.932Z,34.94
2018-07-15T10:10:59.891Z,35.15
2018-07-15T10:11:59.884Z,35.66
2018-07-15T10:12:59.875Z,34.67
2018-07-15T10:13:59.874Z,34.95
2018-07-15T10:14:59.875Z,35.05
2018-07-15T10:15:59.855Z,35.55
2018-07-15T10:16:59.780Z,35.14
2018-07-15T10:17:59.775Z,34.97
2018-07-15T10:18:59.832Z,34.76
2018-07-15T10:19:59.780Z,33.29
2018-07-15T10:20:59.789Z,35.37
2018-07-15T10:21:59.776Z,35.27
2018-07-15T10:22:59.779Z,35.17
2018-07-15T10:23:59.780Z,35.35
2018-07-15T10:24:59.767Z,34.27
2018-07-15T10:25:59.732Z,34.36
2018-07-15T10:26:59.721Z,35.04
2018-07-15T10:27:59.789Z,35.14
2018-07-15T10:28:59.738Z,33.84
2018-07-15T10:29:59.740Z,33.44
2018-07-15T10:30:59.687Z,34.43
2018-07-15T10:31:59.677Z,33.74
2018-07-15T10:32:59.690Z,33.65
2018-07-15T10:33:59.668Z,33.75
2018-07-15T10:34:59.664Z,34.15
2018-07-15T10:35:59.626Z,34.55
2018-07-15T10:36:59.623Z,33.95
2018-07-15T10:37:59.622Z,34.44
2018-07-15T10:38:59.627Z,35.04
2018-07-15T10:39:59.638Z,34.94
2018-07-15T10:40:59.607Z,35.24
2018-07-15T10:41:59.565Z,35.25
2018-07-15T10:42:59.556Z,35.05
2018-07-15T10:43:59.555Z,35.94
2018-07-15T10:44:59.555Z,34.95
2018-07-15T10:45:59.536Z,34.95
2018-07-15T10:46:59.520Z,34.27
2018-07-15T10:47:59.507Z,35.35
2018-07-15T10:48:59.507Z,34.64
2018-07-15T10:49:59.580Z,35.35
2018-07-15T10:50:59.478Z,34.94
2018-07-15T10:51:59.467Z,35.04
2018-07-15T10:52:59.485Z,34.55
2018-07-15T10:53:59.450Z,35.04
2018-07-15T10:54:59.484Z,33.75
2018-07-15T10:55:59.430Z,34.95
2018-07-15T10:56:59.423Z,35.35
2018-07-15T10:57:59.411Z,34.56
2018-07-15T10:58:59.392Z,35.45
2018-07-15T10:59:59.407Z,35.35
2018-07-15T11:00:59.382Z,34.64
2018-07-15T11:01:59.379Z,35.02
2018-07-15T11:02:59.360Z,34.63
2018-07-15T11:03:59.344Z,34.92
2018-07-15T11:04:59.354Z,35.02
2018-07-15T11:05:59.417Z,33.84
2018-07-15T11:06:59.347Z,32.77
2018-07-15T11:07:59.328Z,31.88
2018-07-15T11:08:59.307Z,33.56
2018-07-15T11:09:59.289Z,32.77
2018-07-15T11:10:59.456Z,35.05
2018-07-15T11:11:59.257Z,34.56
2018-07-15T11:12:59.251Z,34.94
2018-07-15T11:13:59.244Z,33.85
2018-07-15T11:14:59.225Z,34.05
2018-07-15T11:15:59.250Z,33.64
2018-07-15T11:16:59.219Z,33.34
2018-07-15T11:17:59.215Z,33.13
2018-07-15T11:18:59.186Z,33.62
2018-07-15T11:19:59.179Z,34.91
2018-07-15T11:20:59.263Z,33.80
2018-07-15T11:21:59.159Z,33.23
2018-07-15T11:22:59.109Z,34.01
2018-07-15T11:23:59.127Z,33.31
2018-07-15T11:24:59.126Z,32.72
2018-07-15T11:25:59.175Z,33.33
2018-07-15T11:26:59.106Z,32.73
2018-07-15T11:27:59.099Z,33.84
2018-07-15T11:28:59.080Z,34.13
2018-07-15T11:29:59.077Z,34.03
2018-07-15T11:30:59.204Z,34.72
2018-07-15T11:31:59.061Z,34.12
2018-07-15T11:32:59.042Z,32.64
2018-07-15T11:33:59.029Z,32.42
2018-07-15T11:34:59.022Z,32.13
2018-07-15T11:35:59.033Z,32.84
2018-07-15T11:36:59.010Z,32.34
2018-07-15T11:37:58.989Z,33.84
2018-07-15T11:38:59.044Z,34.03
2018-07-15T11:39:58.973Z,33.42
2018-07-15T11:40:59.000Z,33.44
2018-07-15T11:41:58.962Z,32.75
2018-07-15T11:42:58.935Z,33.34
2018-07-15T11:43:58.925Z,32.75
2018-07-15T11:44:58.913Z,33.33
2018-07-15T11:45:58.935Z,33.23
2018-07-15T11:46:58.897Z,32.52
2018-07-15T11:47:58.887Z,31.44
2018-07-15T11:48:58.881Z,31.62
2018-07-15T11:49:58.858Z,31.82
2018-07-15T11:50:58.887Z,30.55
2018-07-15T11:51:58.842Z,30.26
2018-07-15T11:52:58.833Z,29.88
2018-07-15T11:53:58.845Z,31.06
2018-07-15T11:54:58.810Z,31.16
2018-07-15T11:56:08.497Z,30.07
2018-07-15T11:56:58.794Z,30.57
2018-07-15T11:57:58.781Z,30.96
2018-07-15T11:58:58.772Z,30.57
2018-07-15T11:59:58.759Z,30.37
2018-07-15T12:00:58.791Z,29.57
2018-07-15T12:01:58.774Z,29.37
2018-07-15T12:02:58.727Z,29.66
2018-07-15T12:03:58.714Z,30.06
2018-07-15T12:04:58.705Z,29.96
2018-07-15T12:05:58.717Z,29.76
2018-07-15T12:06:58.692Z,30.26
2018-07-15T12:07:58.698Z,29.86
2018-07-15T12:08:58.727Z,30.17
2018-07-15T12:09:58.772Z,30.86
2018-07-15T12:10:58.746Z,30.27
2018-07-15T12:11:58.661Z,30.47
2018-07-15T12:12:58.631Z,29.89
2018-07-15T12:13:58.618Z,30.29
2018-07-15T12:14:58.619Z,29.99
2018-07-15T12:15:58.673Z,29.79
2018-07-15T12:16:58.587Z,30.58
2018-07-15T12:17:58.568Z,30.96
2018-07-15T12:18:58.558Z,32.34
2018-07-15T12:19:58.558Z,30.55
2018-07-15T12:20:58.556Z,30.75
2018-07-15T12:21:58.510Z,30.75
2018-07-15T12:22:58.523Z,30.55
2018-07-15T12:23:58.539Z,31.73
2018-07-15T12:24:58.510Z,29.65
2018-07-15T12:25:58.501Z,29.46
2018-07-15T12:26:58.507Z,30.04
2018-07-15T12:27:58.475Z,30.04
2018-07-15T12:28:58.459Z,29.06
2018-07-15T12:29:58.452Z,29.07
2018-07-15T12:30:58.437Z,30.24
2018-07-15T12:31:58.456Z,30.15
2018-07-15T12:32:58.416Z,29.85
2018-07-15T12:33:58.407Z,28.88
2018-07-15T12:34:58.406Z,29.16
2018-07-15T12:35:58.383Z,29.55
2018-07-15T12:36:58.402Z,29.37
2018-07-15T12:37:58.370Z,29.86
2018-07-15T12:38:58.360Z,29.86
2018-07-15T12:39:58.348Z,29.96
2018-07-15T12:40:58.344Z,30.65
2018-07-15T12:41:58.363Z,30.45
2018-07-15T12:42:58.312Z,30.55
2018-07-15T12:43:58.329Z,30.45
2018-07-15T12:44:58.259Z,30.54
2018-07-15T12:45:58.281Z,29.74
2018-07-15T12:46:58.300Z,29.75
2018-07-15T12:47:58.213Z,29.94
2018-07-15T12:48:58.255Z,30.15
2018-07-15T12:49:58.239Z,30.24
2018-07-15T12:50:58.229Z,30.73
2018-07-15T12:51:58.308Z,30.43
2018-07-15T12:52:58.214Z,30.22
2018-07-15T12:53:58.198Z,29.34
2018-07-15T12:54:58.201Z,30.03
2018-07-15T12:55:58.186Z,28.56
2018-07-15T12:56:58.224Z,28.77
2018-07-15T12:57:58.116Z,28.68
2018-07-15T12:58:58.141Z,29.07
2018-07-15T12:59:58.146Z,29.66
2018-07-15T13:00:58.132Z,29.66
2018-07-15T13:01:58.132Z,29.07
2018-07-15T13:02:58.141Z,27.87